sensor_id;sensor_type;location;lat;lon;timestamp;P1;durP1;ratioP1;P2;durP2;ratioP2
4055;SDS011;2043;52.184;8.690;2023-02-12T00:02:02;29.73;;;14.63;;
4055;SDS011;2043;52.184;8.690;2023-02-12T00:04:28;26.20;;;16.23;;
4055;SDS011;2043;52.184;8.690;2023-02-12T00:06:55;30.17;;;17.30;;
4055;SDS011;2043;52.184;8.690;2023-02-12T00:09:22;30.80;;;17.93;;
4055;SDS011;2043;52.184;8.690;2023-02-12T00:11:49;36.03;;;20.03;;
4055;SDS011;2043;52.184;8.690;2023-02-12T00:14:16;40.80;;;20.13;;
4055;SDS011;2043;52.184;8.690;2023-02-12T00:16:43;53.53;;;21.93;;
4055;SDS011;2043;52.184;8.690;2023-02-12T00:19:10;41.03;;;21.63;;
4055;SDS011;2043;52.184;8.690;2023-02-12T00:21:36;44.30;;;22.03;;
4055;SDS011;2043;52.184;8.690;2023-02-12T00:24:03;43.67;;;23.10;;
4055;SDS011;2043;52.184;8.690;2023-02-12T00:26:30;43.97;;;22.87;;
4055;SDS011;2043;52.184;8.690;2023-02-12T00:28:57;43.50;;;23.53;;
4055;SDS011;2043;52.184;8.690;2023-02-12T00:31:24;42.33;;;22.27;;
4055;SDS011;2043;52.184;8.690;2023-02-12T00:33:53;44.07;;;23.17;;
4055;SDS011;2043;52.184;8.690;2023-02-12T00:36:21;49.37;;;24.87;;
4055;SDS011;2043;52.184;8.690;2023-02-12T00:38:50;46.60;;;24.17;;
4055;SDS011;2043;52.184;8.690;2023-02-12T00:41:18;48.17;;;24.90;;
4055;SDS011;2043;52.184;8.690;2023-02-12T00:43:45;50.67;;;24.03;;
4055;SDS011;2043;52.184;8.690;2023-02-12T00:46:12;44.57;;;24.40;;
4055;SDS011;2043;52.184;8.690;2023-02-12T00:48:39;44.17;;;23.10;;
4055;SDS011;2043;52.184;8.690;2023-02-12T00:51:06;48.03;;;25.20;;
4055;SDS011;2043;52.184;8.690;2023-02-12T00:53:33;41.40;;;23.57;;
4055;SDS011;2043;52.184;8.690;2023-02-12T00:56:00;46.73;;;24.27;;
4055;SDS011;2043;52.184;8.690;2023-02-12T00:58:28;48.83;;;24.63;;
4055;SDS011;2043;52.184;8.690;2023-02-12T01:00:54;44.70;;;24.50;;
4055;SDS011;2043;52.184;8.690;2023-02-12T01:03:21;47.67;;;24.70;;
4055;SDS011;2043;52.184;8.690;2023-02-12T01:05:48;48.10;;;24.50;;
4055;SDS011;2043;52.184;8.690;2023-02-12T01:08:15;50.33;;;25.60;;
4055;SDS011;2043;52.184;8.690;2023-02-12T01:10:42;50.30;;;25.30;;
4055;SDS011;2043;52.184;8.690;2023-02-12T01:13:13;47.37;;;25.80;;
4055;SDS011;2043;52.184;8.690;2023-02-12T01:15:40;47.83;;;24.80;;
4055;SDS011;2043;52.184;8.690;2023-02-12T01:18:07;42.17;;;23.93;;
4055;SDS011;2043;52.184;8.690;2023-02-12T01:20:38;42.50;;;24.30;;
4055;SDS011;2043;52.184;8.690;2023-02-12T01:23:05;52.37;;;25.40;;
4055;SDS011;2043;52.184;8.690;2023-02-12T01:25:33;40.03;;;23.00;;
4055;SDS011;2043;52.184;8.690;2023-02-12T01:28:00;47.27;;;24.43;;
4055;SDS011;2043;52.184;8.690;2023-02-12T01:30:27;42.43;;;23.00;;
4055;SDS011;2043;52.184;8.690;2023-02-12T01:32:53;42.67;;;23.90;;
4055;SDS011;2043;52.184;8.690;2023-02-12T01:35:20;42.37;;;23.33;;
4055;SDS011;2043;52.184;8.690;2023-02-12T01:37:47;52.50;;;25.10;;
4055;SDS011;2043;52.184;8.690;2023-02-12T01:40:14;55.60;;;25.20;;
4055;SDS011;2043;52.184;8.690;2023-02-12T01:42:43;49.70;;;25.40;;
4055;SDS011;2043;52.184;8.690;2023-02-12T01:47:43;44.37;;;23.73;;
4055;SDS011;2043;52.184;8.690;2023-02-12T01:50:11;42.80;;;23.37;;
4055;SDS011;2043;52.184;8.690;2023-02-12T01:52:42;43.73;;;22.10;;
4055;SDS011;2043;52.184;8.690;2023-02-12T01:55:13;35.57;;;20.87;;
4055;SDS011;2043;52.184;8.690;2023-02-12T01:57:41;35.10;;;20.40;;
4055;SDS011;2043;52.184;8.690;2023-02-12T02:00:12;44.57;;;21.27;;
4055;SDS011;2043;52.184;8.690;2023-02-12T02:02:42;36.50;;;19.40;;
4055;SDS011;2043;52.184;8.690;2023-02-12T02:05:11;31.83;;;18.60;;
4055;SDS011;2043;52.184;8.690;2023-02-12T02:07:42;36.23;;;19.90;;
4055;SDS011;2043;52.184;8.690;2023-02-12T02:10:10;38.50;;;19.37;;
4055;SDS011;2043;52.184;8.690;2023-02-12T02:12:37;39.90;;;19.00;;
4055;SDS011;2043;52.184;8.690;2023-02-12T02:15:24;34.33;;;19.03;;
4055;SDS011;2043;52.184;8.690;2023-02-12T02:17:55;31.40;;;17.90;;
4055;SDS011;2043;52.184;8.690;2023-02-12T02:32:25;29.20;;;17.27;;
4055;SDS011;2043;52.184;8.690;2023-02-12T02:37:59;29.60;;;15.97;;
4055;SDS011;2043;52.184;8.690;2023-02-12T02:40:52;28.47;;;15.10;;
4055;SDS011;2043;52.184;8.690;2023-02-12T02:43:41;31.83;;;17.07;;
4055;SDS011;2043;52.184;8.690;2023-02-12T02:46:15;33.53;;;15.50;;
4055;SDS011;2043;52.184;8.690;2023-02-12T02:48:58;34.33;;;15.27;;
4055;SDS011;2043;52.184;8.690;2023-02-12T02:51:29;30.60;;;16.10;;
4055;SDS011;2043;52.184;8.690;2023-02-12T02:56:58;27.30;;;15.53;;
4055;SDS011;2043;52.184;8.690;2023-02-12T02:59:34;31.90;;;15.20;;
4055;SDS011;2043;52.184;8.690;2023-02-12T03:02:07;28.23;;;16.40;;
4055;SDS011;2043;52.184;8.690;2023-02-12T03:04:43;37.17;;;17.23;;
4055;SDS011;2043;52.184;8.690;2023-02-12T03:07:15;34.37;;;16.60;;
4055;SDS011;2043;52.184;8.690;2023-02-12T03:09:52;32.53;;;15.90;;
4055;SDS011;2043;52.184;8.690;2023-02-12T03:12:22;40.63;;;17.23;;
4055;SDS011;2043;52.184;8.690;2023-02-12T03:15:14;37.17;;;16.63;;
4055;SDS011;2043;52.184;8.690;2023-02-12T03:17:45;44.60;;;17.20;;
4055;SDS011;2043;52.184;8.690;2023-02-12T03:20:25;30.90;;;16.47;;
4055;SDS011;2043;52.184;8.690;2023-02-12T03:22:57;36.80;;;17.57;;
4055;SDS011;2043;52.184;8.690;2023-02-12T03:25:33;34.50;;;17.77;;
4055;SDS011;2043;52.184;8.690;2023-02-12T03:28:06;40.27;;;17.90;;
4055;SDS011;2043;52.184;8.690;2023-02-12T03:33:15;43.73;;;18.90;;
4055;SDS011;2043;52.184;8.690;2023-02-12T03:38:33;43.80;;;20.33;;
4055;SDS011;2043;52.184;8.690;2023-02-12T03:41:13;45.00;;;20.10;;
4055;SDS011;2043;52.184;8.690;2023-02-12T03:43:54;44.57;;;20.50;;
4055;SDS011;2043;52.184;8.690;2023-02-12T03:51:54;41.07;;;21.60;;
4055;SDS011;2043;52.184;8.690;2023-02-12T03:54:21;39.67;;;20.63;;
4055;SDS011;2043;52.184;8.690;2023-02-12T03:56:50;44.00;;;21.17;;
4055;SDS011;2043;52.184;8.690;2023-02-12T03:59:24;44.40;;;22.13;;
4055;SDS011;2043;52.184;8.690;2023-02-12T04:01:52;47.03;;;22.10;;
4055;SDS011;2043;52.184;8.690;2023-02-12T04:04:21;47.53;;;20.67;;
4055;SDS011;2043;52.184;8.690;2023-02-12T04:06:49;42.97;;;21.67;;
4055;SDS011;2043;52.184;8.690;2023-02-12T04:09:18;57.37;;;23.63;;
4055;SDS011;2043;52.184;8.690;2023-02-12T04:30:22;51.33;;;24.97;;
4055;SDS011;2043;52.184;8.690;2023-02-12T04:32:53;51.13;;;24.70;;
4055;SDS011;2043;52.184;8.690;2023-02-12T04:35:28;61.43;;;25.40;;
4055;SDS011;2043;52.184;8.690;2023-02-12T04:38:08;65.47;;;25.20;;
4055;SDS011;2043;52.184;8.690;2023-02-12T04:40:40;56.70;;;25.00;;
4055;SDS011;2043;52.184;8.690;2023-02-12T04:43:08;56.47;;;26.00;;
4055;SDS011;2043;52.184;8.690;2023-02-12T04:45:35;49.90;;;24.33;;
4055;SDS011;2043;52.184;8.690;2023-02-12T04:48:03;56.33;;;25.43;;
4055;SDS011;2043;52.184;8.690;2023-02-12T04:50:36;61.67;;;27.47;;
4055;SDS011;2043;52.184;8.690;2023-02-12T04:53:05;71.47;;;28.97;;
4055;SDS011;2043;52.184;8.690;2023-02-12T04:55:32;57.53;;;27.10;;
4055;SDS011;2043;52.184;8.690;2023-02-12T04:57:59;58.17;;;27.13;;
4055;SDS011;2043;52.184;8.690;2023-02-12T05:00:25;55.07;;;28.40;;
4055;SDS011;2043;52.184;8.690;2023-02-12T05:02:52;75.07;;;31.10;;
4055;SDS011;2043;52.184;8.690;2023-02-12T05:05:19;76.03;;;31.60;;
4055;SDS011;2043;52.184;8.690;2023-02-12T05:07:47;77.43;;;30.23;;
4055;SDS011;2043;52.184;8.690;2023-02-12T05:10:14;76.77;;;30.77;;
4055;SDS011;2043;52.184;8.690;2023-02-12T05:12:40;86.20;;;31.03;;
4055;SDS011;2043;52.184;8.690;2023-02-12T05:15:07;75.17;;;31.60;;
4055;SDS011;2043;52.184;8.690;2023-02-12T05:17:34;73.17;;;32.13;;
4055;SDS011;2043;52.184;8.690;2023-02-12T05:20:01;76.50;;;32.97;;
4055;SDS011;2043;52.184;8.690;2023-02-12T05:22:28;80.57;;;32.33;;
4055;SDS011;2043;52.184;8.690;2023-02-12T05:24:55;80.77;;;33.90;;
4055;SDS011;2043;52.184;8.690;2023-02-12T05:27:22;88.37;;;35.40;;
4055;SDS011;2043;52.184;8.690;2023-02-12T05:29:48;85.57;;;33.67;;
4055;SDS011;2043;52.184;8.690;2023-02-12T05:32:15;88.10;;;33.17;;
4055;SDS011;2043;52.184;8.690;2023-02-12T05:34:42;90.50;;;35.20;;
4055;SDS011;2043;52.184;8.690;2023-02-12T05:37:09;92.50;;;35.40;;
4055;SDS011;2043;52.184;8.690;2023-02-12T05:39:35;108.07;;;35.70;;
4055;SDS011;2043;52.184;8.690;2023-02-12T05:42:02;101.07;;;37.00;;
4055;SDS011;2043;52.184;8.690;2023-02-12T05:44:29;99.27;;;38.40;;
4055;SDS011;2043;52.184;8.690;2023-02-12T05:46:56;103.93;;;38.77;;
4055;SDS011;2043;52.184;8.690;2023-02-12T05:49:22;99.43;;;38.20;;
4055;SDS011;2043;52.184;8.690;2023-02-12T05:51:49;107.47;;;39.90;;
4055;SDS011;2043;52.184;8.690;2023-02-12T05:54:16;115.03;;;41.63;;
4055;SDS011;2043;52.184;8.690;2023-02-12T05:56:44;115.27;;;43.47;;
4055;SDS011;2043;52.184;8.690;2023-02-12T05:59:16;136.73;;;43.70;;
4055;SDS011;2043;52.184;8.690;2023-02-12T06:01:45;125.27;;;43.67;;
4055;SDS011;2043;52.184;8.690;2023-02-12T06:04:23;125.13;;;43.93;;
4055;SDS011;2043;52.184;8.690;2023-02-12T06:06:52;121.07;;;41.27;;
4055;SDS011;2043;52.184;8.690;2023-02-12T06:09:21;131.43;;;43.83;;
4055;SDS011;2043;52.184;8.690;2023-02-12T06:11:48;126.40;;;44.00;;
4055;SDS011;2043;52.184;8.690;2023-02-12T06:14:15;123.77;;;43.43;;
4055;SDS011;2043;52.184;8.690;2023-02-12T06:16:45;139.50;;;44.70;;
4055;SDS011;2043;52.184;8.690;2023-02-12T06:19:15;125.83;;;44.53;;
4055;SDS011;2043;52.184;8.690;2023-02-12T06:21:43;125.13;;;44.23;;
4055;SDS011;2043;52.184;8.690;2023-02-12T06:24:14;154.17;;;47.83;;
4055;SDS011;2043;52.184;8.690;2023-02-12T06:26:42;131.33;;;43.90;;
4055;SDS011;2043;52.184;8.690;2023-02-12T06:29:09;126.90;;;47.20;;
4055;SDS011;2043;52.184;8.690;2023-02-12T06:31:36;127.93;;;44.83;;
4055;SDS011;2043;52.184;8.690;2023-02-12T06:34:04;130.17;;;46.80;;
4055;SDS011;2043;52.184;8.690;2023-02-12T06:36:32;146.13;;;48.23;;
4055;SDS011;2043;52.184;8.690;2023-02-12T06:39:01;144.10;;;48.60;;
4055;SDS011;2043;52.184;8.690;2023-02-12T06:41:29;128.30;;;48.20;;
4055;SDS011;2043;52.184;8.690;2023-02-12T06:43:56;144.03;;;47.73;;
4055;SDS011;2043;52.184;8.690;2023-02-12T06:46:23;147.67;;;49.87;;
4055;SDS011;2043;52.184;8.690;2023-02-12T06:48:54;133.70;;;47.03;;
4055;SDS011;2043;52.184;8.690;2023-02-12T06:51:21;122.73;;;46.60;;
4055;SDS011;2043;52.184;8.690;2023-02-12T06:53:49;124.67;;;46.07;;
4055;SDS011;2043;52.184;8.690;2023-02-12T06:56:18;137.40;;;47.60;;
4055;SDS011;2043;52.184;8.690;2023-02-12T06:58:46;117.30;;;43.27;;
4055;SDS011;2043;52.184;8.690;2023-02-12T07:01:17;121.97;;;44.43;;
4055;SDS011;2043;52.184;8.690;2023-02-12T07:03:47;119.87;;;44.87;;
4055;SDS011;2043;52.184;8.690;2023-02-12T07:06:16;134.27;;;45.57;;
4055;SDS011;2043;52.184;8.690;2023-02-12T07:08:44;118.10;;;43.97;;
4055;SDS011;2043;52.184;8.690;2023-02-12T07:11:10;124.40;;;46.60;;
4055;SDS011;2043;52.184;8.690;2023-02-12T07:13:39;129.43;;;44.50;;
4055;SDS011;2043;52.184;8.690;2023-02-12T07:16:07;123.37;;;45.27;;
4055;SDS011;2043;52.184;8.690;2023-02-12T07:18:36;118.80;;;43.30;;
4055;SDS011;2043;52.184;8.690;2023-02-12T07:21:03;114.10;;;44.33;;
4055;SDS011;2043;52.184;8.690;2023-02-12T07:23:32;105.60;;;43.20;;
4055;SDS011;2043;52.184;8.690;2023-02-12T07:26:00;112.30;;;42.90;;
4055;SDS011;2043;52.184;8.690;2023-02-12T07:28:29;107.07;;;43.70;;
4055;SDS011;2043;52.184;8.690;2023-02-12T07:31:01;103.20;;;41.77;;
4055;SDS011;2043;52.184;8.690;2023-02-12T07:33:35;102.07;;;40.90;;
4055;SDS011;2043;52.184;8.690;2023-02-12T07:36:03;104.93;;;40.70;;
4055;SDS011;2043;52.184;8.690;2023-02-12T07:38:32;100.13;;;39.03;;
4055;SDS011;2043;52.184;8.690;2023-02-12T07:41:11;100.27;;;40.10;;
4055;SDS011;2043;52.184;8.690;2023-02-12T07:43:40;103.97;;;40.43;;
4055;SDS011;2043;52.184;8.690;2023-02-12T07:46:12;93.37;;;38.30;;
4055;SDS011;2043;52.184;8.690;2023-02-12T07:48:42;95.03;;;36.67;;
4055;SDS011;2043;52.184;8.690;2023-02-12T07:53:44;99.13;;;40.73;;
4055;SDS011;2043;52.184;8.690;2023-02-12T07:56:15;102.70;;;40.67;;
4055;SDS011;2043;52.184;8.690;2023-02-12T07:58:45;87.57;;;39.53;;
4055;SDS011;2043;52.184;8.690;2023-02-12T08:03:41;91.60;;;39.10;;
4055;SDS011;2043;52.184;8.690;2023-02-12T08:06:09;111.93;;;42.47;;
4055;SDS011;2043;52.184;8.690;2023-02-12T08:08:37;112.37;;;43.43;;
4055;SDS011;2043;52.184;8.690;2023-02-12T08:11:07;116.93;;;43.90;;
4055;SDS011;2043;52.184;8.690;2023-02-12T08:13:36;107.83;;;42.63;;
4055;SDS011;2043;52.184;8.690;2023-02-12T08:16:05;119.57;;;43.00;;
4055;SDS011;2043;52.184;8.690;2023-02-12T08:18:34;119.00;;;43.97;;
4055;SDS011;2043;52.184;8.690;2023-02-12T08:21:01;100.93;;;42.27;;
4055;SDS011;2043;52.184;8.690;2023-02-12T08:23:55;113.73;;;44.30;;
4055;SDS011;2043;52.184;8.690;2023-02-12T08:26:25;117.97;;;43.80;;
4055;SDS011;2043;52.184;8.690;2023-02-12T08:28:59;114.80;;;42.80;;
4055;SDS011;2043;52.184;8.690;2023-02-12T08:31:42;114.50;;;43.60;;
4055;SDS011;2043;52.184;8.690;2023-02-12T08:34:17;115.83;;;44.47;;
4055;SDS011;2043;52.184;8.690;2023-02-12T08:36:46;124.50;;;48.00;;
4055;SDS011;2043;52.184;8.690;2023-02-12T08:39:14;126.13;;;46.27;;
4055;SDS011;2043;52.184;8.690;2023-02-12T08:41:42;105.93;;;44.37;;
4055;SDS011;2043;52.184;8.690;2023-02-12T08:44:09;138.50;;;47.30;;
4055;SDS011;2043;52.184;8.690;2023-02-12T08:46:37;124.40;;;47.67;;
4055;SDS011;2043;52.184;8.690;2023-02-12T08:49:07;141.43;;;50.13;;
4055;SDS011;2043;52.184;8.690;2023-02-12T08:51:38;122.37;;;48.97;;
4055;SDS011;2043;52.184;8.690;2023-02-12T08:54:10;113.20;;;47.60;;
4055;SDS011;2043;52.184;8.690;2023-02-12T08:56:39;123.50;;;47.97;;
4055;SDS011;2043;52.184;8.690;2023-02-12T08:59:07;122.60;;;46.57;;
4055;SDS011;2043;52.184;8.690;2023-02-12T09:01:35;137.73;;;48.80;;
4055;SDS011;2043;52.184;8.690;2023-02-12T09:04:16;132.67;;;47.67;;
4055;SDS011;2043;52.184;8.690;2023-02-12T09:06:47;129.90;;;46.27;;
4055;SDS011;2043;52.184;8.690;2023-02-12T09:09:14;125.10;;;45.93;;
4055;SDS011;2043;52.184;8.690;2023-02-12T09:11:41;131.47;;;47.40;;
4055;SDS011;2043;52.184;8.690;2023-02-12T09:14:10;126.77;;;47.73;;
4055;SDS011;2043;52.184;8.690;2023-02-12T09:16:39;136.80;;;49.60;;
4055;SDS011;2043;52.184;8.690;2023-02-12T09:19:06;123.57;;;47.33;;
4055;SDS011;2043;52.184;8.690;2023-02-12T09:21:34;117.87;;;45.17;;
4055;SDS011;2043;52.184;8.690;2023-02-12T09:24:01;114.57;;;44.47;;
4055;SDS011;2043;52.184;8.690;2023-02-12T09:26:28;104.87;;;44.97;;
4055;SDS011;2043;52.184;8.690;2023-02-12T09:28:56;111.10;;;43.80;;
4055;SDS011;2043;52.184;8.690;2023-02-12T09:31:24;106.30;;;43.77;;
4055;SDS011;2043;52.184;8.690;2023-02-12T09:33:54;106.63;;;42.03;;
4055;SDS011;2043;52.184;8.690;2023-02-12T09:36:24;103.73;;;43.60;;
4055;SDS011;2043;52.184;8.690;2023-02-12T09:38:51;109.87;;;42.67;;
4055;SDS011;2043;52.184;8.690;2023-02-12T09:43:59;109.27;;;44.43;;
4055;SDS011;2043;52.184;8.690;2023-02-12T09:46:30;117.20;;;43.00;;
4055;SDS011;2043;52.184;8.690;2023-02-12T09:49:55;100.43;;;41.90;;
4055;SDS011;2043;52.184;8.690;2023-02-12T09:52:21;96.23;;;40.53;;
4055;SDS011;2043;52.184;8.690;2023-02-12T09:54:52;107.63;;;44.00;;
4055;SDS011;2043;52.184;8.690;2023-02-12T09:57:32;116.33;;;43.47;;
4055;SDS011;2043;52.184;8.690;2023-02-12T10:00:15;104.87;;;41.67;;
4055;SDS011;2043;52.184;8.690;2023-02-12T10:03:00;100.27;;;40.83;;
4055;SDS011;2043;52.184;8.690;2023-02-12T10:05:31;97.37;;;39.40;;
4055;SDS011;2043;52.184;8.690;2023-02-12T10:10:52;94.50;;;38.40;;
4055;SDS011;2043;52.184;8.690;2023-02-12T10:27:39;103.37;;;40.10;;
4055;SDS011;2043;52.184;8.690;2023-02-12T10:33:11;98.47;;;42.07;;
4055;SDS011;2043;52.184;8.690;2023-02-12T10:35:47;104.77;;;42.43;;
4055;SDS011;2043;52.184;8.690;2023-02-12T10:38:19;96.87;;;40.37;;
4055;SDS011;2043;52.184;8.690;2023-02-12T10:40:47;95.27;;;38.00;;
4055;SDS011;2043;52.184;8.690;2023-02-12T10:43:15;101.90;;;40.10;;
4055;SDS011;2043;52.184;8.690;2023-02-12T10:45:43;89.27;;;38.60;;
4055;SDS011;2043;52.184;8.690;2023-02-12T10:53:36;92.90;;;39.20;;
4055;SDS011;2043;52.184;8.690;2023-02-12T10:56:17;91.10;;;38.77;;
4055;SDS011;2043;52.184;8.690;2023-02-12T11:01:24;90.20;;;38.00;;
4055;SDS011;2043;52.184;8.690;2023-02-12T11:03:51;101.80;;;40.30;;
4055;SDS011;2043;52.184;8.690;2023-02-12T11:06:24;88.33;;;37.40;;
4055;SDS011;2043;52.184;8.690;2023-02-12T11:08:56;98.13;;;37.80;;
4055;SDS011;2043;52.184;8.690;2023-02-12T11:11:30;88.17;;;38.57;;
4055;SDS011;2043;52.184;8.690;2023-02-12T11:14:17;94.23;;;39.40;;
4055;SDS011;2043;52.184;8.690;2023-02-12T11:16:52;87.60;;;37.03;;
4055;SDS011;2043;52.184;8.690;2023-02-12T11:19:26;95.73;;;38.80;;
4055;SDS011;2043;52.184;8.690;2023-02-12T11:22:07;84.90;;;36.40;;
4055;SDS011;2043;52.184;8.690;2023-02-12T11:24:36;95.87;;;40.57;;
4055;SDS011;2043;52.184;8.690;2023-02-12T11:29:42;110.43;;;39.20;;
4055;SDS011;2043;52.184;8.690;2023-02-12T11:32:16;95.03;;;40.10;;
4055;SDS011;2043;52.184;8.690;2023-02-12T11:37:38;87.60;;;39.10;;
4055;SDS011;2043;52.184;8.690;2023-02-12T11:40:30;86.27;;;36.27;;
4055;SDS011;2043;52.184;8.690;2023-02-12T11:43:05;81.90;;;35.10;;
4055;SDS011;2043;52.184;8.690;2023-02-12T11:45:45;83.40;;;36.97;;
4055;SDS011;2043;52.184;8.690;2023-02-12T11:48:19;86.27;;;36.37;;
4055;SDS011;2043;52.184;8.690;2023-02-12T11:51:01;70.17;;;32.40;;
4055;SDS011;2043;52.184;8.690;2023-02-12T11:53:31;81.80;;;35.20;;
4055;SDS011;2043;52.184;8.690;2023-02-12T11:56:04;62.33;;;29.87;;
4055;SDS011;2043;52.184;8.690;2023-02-12T11:58:34;63.97;;;30.30;;
4055;SDS011;2043;52.184;8.690;2023-02-12T12:03:57;65.43;;;31.33;;
4055;SDS011;2043;52.184;8.690;2023-02-12T12:09:43;68.03;;;30.30;;
4055;SDS011;2043;52.184;8.690;2023-02-12T12:12:36;63.00;;;30.10;;
4055;SDS011;2043;52.184;8.690;2023-02-12T12:15:05;57.73;;;25.73;;
4055;SDS011;2043;52.184;8.690;2023-02-12T12:21:07;52.30;;;25.20;;
4055;SDS011;2043;52.184;8.690;2023-02-12T12:28:50;50.33;;;25.97;;
4055;SDS011;2043;52.184;8.690;2023-02-12T12:34:08;42.20;;;21.10;;
4055;SDS011;2043;52.184;8.690;2023-02-12T12:39:34;42.00;;;21.37;;
4055;SDS011;2043;52.184;8.690;2023-02-12T12:47:43;34.90;;;16.97;;
4055;SDS011;2043;52.184;8.690;2023-02-12T13:01:51;21.57;;;12.97;;
4055;SDS011;2043;52.184;8.690;2023-02-12T13:13:01;23.33;;;13.40;;
4055;SDS011;2043;52.184;8.690;2023-02-12T13:15:49;23.40;;;12.97;;
4055;SDS011;2043;52.184;8.690;2023-02-12T13:18:27;24.80;;;14.20;;
4055;SDS011;2043;52.184;8.690;2023-02-12T13:21:05;21.90;;;12.90;;
4055;SDS011;2043;52.184;8.690;2023-02-12T13:26:22;22.13;;;12.93;;
4055;SDS011;2043;52.184;8.690;2023-02-12T13:29:18;18.97;;;11.90;;
4055;SDS011;2043;52.184;8.690;2023-02-12T13:31:50;20.80;;;12.13;;
4055;SDS011;2043;52.184;8.690;2023-02-12T13:34:29;20.23;;;11.90;;
4055;SDS011;2043;52.184;8.690;2023-02-12T13:37:00;21.33;;;10.93;;
4055;SDS011;2043;52.184;8.690;2023-02-12T13:39:39;17.23;;;10.73;;
4055;SDS011;2043;52.184;8.690;2023-02-12T13:47:37;14.97;;;9.60;;
4055;SDS011;2043;52.184;8.690;2023-02-12T13:55:58;17.97;;;10.17;;
4055;SDS011;2043;52.184;8.690;2023-02-12T13:58:46;14.97;;;9.10;;
4055;SDS011;2043;52.184;8.690;2023-02-12T14:01:36;16.03;;;9.37;;
4055;SDS011;2043;52.184;8.690;2023-02-12T14:04:15;17.50;;;10.20;;
4055;SDS011;2043;52.184;8.690;2023-02-12T14:06:57;16.67;;;10.30;;
4055;SDS011;2043;52.184;8.690;2023-02-12T14:09:40;16.57;;;9.87;;
4055;SDS011;2043;52.184;8.690;2023-02-12T14:12:13;14.93;;;9.53;;
4055;SDS011;2043;52.184;8.690;2023-02-12T14:14:50;13.17;;;8.10;;
4055;SDS011;2043;52.184;8.690;2023-02-12T14:27:58;13.77;;;8.67;;
4055;SDS011;2043;52.184;8.690;2023-02-12T14:30:34;14.30;;;7.93;;
4055;SDS011;2043;52.184;8.690;2023-02-12T14:35:33;13.57;;;8.00;;
4055;SDS011;2043;52.184;8.690;2023-02-12T14:49:35;11.07;;;6.77;;
4055;SDS011;2043;52.184;8.690;2023-02-12T14:52:12;12.70;;;7.13;;
4055;SDS011;2043;52.184;8.690;2023-02-12T14:54:50;11.43;;;7.57;;
4055;SDS011;2043;52.184;8.690;2023-02-12T14:59:47;11.10;;;7.63;;
4055;SDS011;2043;52.184;8.690;2023-02-12T15:02:24;12.63;;;8.33;;
4055;SDS011;2043;52.184;8.690;2023-02-12T15:04:56;13.20;;;8.30;;
4055;SDS011;2043;52.184;8.690;2023-02-12T15:07:34;13.33;;;8.10;;
4055;SDS011;2043;52.184;8.690;2023-02-12T15:10:07;12.87;;;8.03;;
4055;SDS011;2043;52.184;8.690;2023-02-12T15:18:21;14.67;;;8.87;;
4055;SDS011;2043;52.184;8.690;2023-02-12T15:20:55;16.20;;;8.30;;
4055;SDS011;2043;52.184;8.690;2023-02-12T15:23:41;11.47;;;7.40;;
4055;SDS011;2043;52.184;8.690;2023-02-12T15:26:11;16.73;;;8.80;;
4055;SDS011;2043;52.184;8.690;2023-02-12T15:28:47;13.70;;;8.83;;
4055;SDS011;2043;52.184;8.690;2023-02-12T15:31:17;14.00;;;7.80;;
4055;SDS011;2043;52.184;8.690;2023-02-12T15:33:48;14.90;;;9.07;;
4055;SDS011;2043;52.184;8.690;2023-02-12T15:36:18;13.30;;;8.07;;
4055;SDS011;2043;52.184;8.690;2023-02-12T15:38:47;11.77;;;7.70;;
4055;SDS011;2043;52.184;8.690;2023-02-12T15:44:04;18.47;;;10.30;;
4055;SDS011;2043;52.184;8.690;2023-02-12T15:47:01;18.47;;;10.50;;
4055;SDS011;2043;52.184;8.690;2023-02-12T15:49:36;15.73;;;8.83;;
4055;SDS011;2043;52.184;8.690;2023-02-12T15:52:09;16.63;;;8.83;;
4055;SDS011;2043;52.184;8.690;2023-02-12T15:54:45;13.80;;;8.83;;
4055;SDS011;2043;52.184;8.690;2023-02-12T15:57:18;16.40;;;9.57;;
4055;SDS011;2043;52.184;8.690;2023-02-12T15:59:55;17.03;;;9.60;;
4055;SDS011;2043;52.184;8.690;2023-02-12T16:02:29;13.20;;;8.70;;
4055;SDS011;2043;52.184;8.690;2023-02-12T16:04:58;15.63;;;7.97;;
4055;SDS011;2043;52.184;8.690;2023-02-12T16:07:28;12.77;;;8.52;;
4055;SDS011;2043;52.184;8.690;2023-02-12T16:10:02;17.40;;;10.23;;
4055;SDS011;2043;52.184;8.690;2023-02-12T16:12:31;20.67;;;12.63;;
4055;SDS011;2043;52.184;8.690;2023-02-12T16:15:02;17.33;;;11.47;;
4055;SDS011;2043;52.184;8.690;2023-02-12T16:17:30;14.77;;;8.47;;
4055;SDS011;2043;52.184;8.690;2023-02-12T16:20:04;13.43;;;8.90;;
4055;SDS011;2043;52.184;8.690;2023-02-12T16:22:47;15.87;;;9.63;;
4055;SDS011;2043;52.184;8.690;2023-02-12T16:25:18;27.77;;;17.97;;
4055;SDS011;2043;52.184;8.690;2023-02-12T16:27:57;18.30;;;12.10;;
4055;SDS011;2043;52.184;8.690;2023-02-12T16:30:26;36.40;;;22.73;;
4055;SDS011;2043;52.184;8.690;2023-02-12T16:32:57;25.23;;;16.47;;
4055;SDS011;2043;52.184;8.690;2023-02-12T16:35:34;25.17;;;14.80;;
4055;SDS011;2043;52.184;8.690;2023-02-12T16:43:40;19.13;;;10.53;;
4055;SDS011;2043;52.184;8.690;2023-02-12T16:46:07;19.27;;;10.20;;
4055;SDS011;2043;52.184;8.690;2023-02-12T16:48:45;19.20;;;10.63;;
4055;SDS011;2043;52.184;8.690;2023-02-12T16:53:58;104.47;;;54.47;;
4055;SDS011;2043;52.184;8.690;2023-02-12T16:56:29;32.30;;;17.70;;
4055;SDS011;2043;52.184;8.690;2023-02-12T16:58:59;39.60;;;23.03;;
4055;SDS011;2043;52.184;8.690;2023-02-12T17:01:27;32.20;;;19.80;;
4055;SDS011;2043;52.184;8.690;2023-02-12T17:04:00;22.93;;;14.27;;
4055;SDS011;2043;52.184;8.690;2023-02-12T17:06:30;21.93;;;13.33;;
4055;SDS011;2043;52.184;8.690;2023-02-12T17:08:58;16.63;;;10.97;;
4055;SDS011;2043;52.184;8.690;2023-02-12T17:11:25;17.53;;;11.00;;
4055;SDS011;2043;52.184;8.690;2023-02-12T17:13:53;18.43;;;12.20;;
4055;SDS011;2043;52.184;8.690;2023-02-12T17:16:20;17.03;;;11.30;;
4055;SDS011;2043;52.184;8.690;2023-02-12T17:18:57;18.43;;;11.73;;
4055;SDS011;2043;52.184;8.690;2023-02-12T17:21:58;21.27;;;13.50;;
4055;SDS011;2043;52.184;8.690;2023-02-12T17:24:25;21.90;;;13.90;;
4055;SDS011;2043;52.184;8.690;2023-02-12T17:26:54;24.30;;;14.17;;
4055;SDS011;2043;52.184;8.690;2023-02-12T17:29:22;24.90;;;15.93;;
4055;SDS011;2043;52.184;8.690;2023-02-12T17:31:49;24.10;;;14.73;;
4055;SDS011;2043;52.184;8.690;2023-02-12T17:34:19;23.50;;;13.90;;
4055;SDS011;2043;52.184;8.690;2023-02-12T17:36:46;20.30;;;13.10;;
4055;SDS011;2043;52.184;8.690;2023-02-12T17:39:13;28.67;;;16.93;;
4055;SDS011;2043;52.184;8.690;2023-02-12T17:41:41;25.03;;;16.23;;
4055;SDS011;2043;52.184;8.690;2023-02-12T17:44:09;25.90;;;16.47;;
4055;SDS011;2043;52.184;8.690;2023-02-12T17:46:38;30.63;;;19.20;;
4055;SDS011;2043;52.184;8.690;2023-02-12T17:49:05;28.20;;;17.13;;
4055;SDS011;2043;52.184;8.690;2023-02-12T17:51:32;24.50;;;14.93;;
4055;SDS011;2043;52.184;8.690;2023-02-12T17:53:59;27.77;;;18.57;;
4055;SDS011;2043;52.184;8.690;2023-02-12T17:56:25;24.80;;;17.07;;
4055;SDS011;2043;52.184;8.690;2023-02-12T17:58:52;29.23;;;18.07;;
4055;SDS011;2043;52.184;8.690;2023-02-12T18:01:20;37.30;;;21.73;;
4055;SDS011;2043;52.184;8.690;2023-02-12T18:03:47;37.70;;;23.40;;
4055;SDS011;2043;52.184;8.690;2023-02-12T18:06:25;38.57;;;22.30;;
4055;SDS011;2043;52.184;8.690;2023-02-12T18:08:54;31.57;;;19.43;;
4055;SDS011;2043;52.184;8.690;2023-02-12T18:11:22;25.37;;;16.00;;
4055;SDS011;2043;52.184;8.690;2023-02-12T18:13:51;22.57;;;14.60;;
4055;SDS011;2043;52.184;8.690;2023-02-12T18:16:19;53.20;;;31.30;;
4055;SDS011;2043;52.184;8.690;2023-02-12T18:18:47;26.43;;;15.83;;
4055;SDS011;2043;52.184;8.690;2023-02-12T18:21:14;27.73;;;17.53;;
4055;SDS011;2043;52.184;8.690;2023-02-12T18:23:41;27.63;;;16.40;;
4055;SDS011;2043;52.184;8.690;2023-02-12T18:26:13;25.93;;;15.50;;